Time;durP1;ratioP1;P1;durP2;ratioP2;P2;SDS_P1;SDS_P2;PMS_P1;PMS_P2;Temp;Humidity;BMP_temperature;BMP_pressure;BME280_temperature;BME280_humidity;BME280_pressure;Samples;Min_cycle;Max_cycle;Signal;HPM_P1;HPM_P2
2023/12/19 00:04:10;;;;;;;15.40;10.27;;;;;;;7.26;44.08;101010.25;10372230;28;20708;-79
2023/12/19 00:09:12;;;;;;;13.70;9.90;;;;;;;7.32;43.60;100970.56;10373780;28;20233;-79
2023/12/19 00:14:14;;;;;;;12.13;9.37;;;;;;;6.28;44.68;101032.59;10382086;28;20229;-78
2023/12/19 00:19:15;;;;;;;11.33;8.93;;;;;;;7.03;43.24;101020.19;10371322;28;20771;-78
2023/12/19 00:24:17;;;;;;;10.93;9.47;;;;;;;6.55;44.66;100913.31;10373279;28;20264;-78
2023/12/19 00:29:19;;;;;;;13.57;9.30;;;;;;;7.53;43.00;100832.03;10368646;28;20303;-78
2023/12/19 00:34:20;;;;;;;10.50;8.13;;;;;;;8.35;42.14;100791.69;10376269;28;20303;-79
2023/12/19 00:39:26;;;;;;;10.37;8.47;;;;;;;6.25;44.26;101033.69;10360774;28;20319;-78
2023/12/19 00:44:28;;;;;;;10.00;8.07;;;;;;;6.60;44.21;100878.34;10372916;28;20253;-78
2023/12/19 00:49:30;;;;;;;9.13;7.60;;;;;;;6.10;44.30;101008.38;10385197;28;20247;-78
2023/12/19 00:54:32;;;;;;;12.10;8.60;;;;;;;5.65;44.87;100996.00;10364601;28;20336;-78
2023/12/19 00:59:33;;;;;;;9.50;8.33;;;;;;;7.12;42.80;100899.59;10372286;28;20291;-79
2023/12/19 01:04:36;;;;;;;11.37;9.10;;;;;;;6.17;44.53;100948.41;10387884;28;20240;-78
2023/12/19 01:09:40;;;;;;;10.87;8.33;;;;;;;6.79;43.78;100862.50;10375083;28;20298;-78
2023/12/19 01:14:42;;;;;;;8.13;6.97;;;;;;;6.48;43.95;100909.50;10379576;28;20236;-78
2023/12/19 01:19:43;;;;;;;10.07;7.73;;;;;;;5.95;43.82;101088.34;10379759;28;20276;-78
2023/12/19 01:24:47;;;;;;;11.97;7.90;;;;;;;7.35;42.46;100844.31;10378297;28;20251;-78
2023/12/19 01:29:49;;;;;;;10.20;8.13;;;;;;;6.45;43.96;100907.09;10381174;28;20230;-77
2023/12/19 01:34:52;;;;;;;9.50;7.67;;;;;;;6.88;42.70;100988.56;10373534;28;20365;-78
2023/12/19 01:39:54;;;;;;;8.63;7.43;;;;;;;6.69;43.51;100866.06;10380829;28;20235;-79
2023/12/19 01:45:12;;;;;;;8.53;7.27;;;;;;;6.74;43.27;100915.22;10384742;28;20242;-78
2023/12/19 01:50:15;;;;;;;10.20;8.03;;;;;;;6.15;44.02;100969.81;10363869;28;20352;-79
2023/12/19 01:55:19;;;;;;;8.27;6.73;;;;;;;6.31;43.19;101025.19;10379268;28;20664;-79
2023/12/19 02:00:22;;;;;;;8.03;7.00;;;;;;;6.21;42.78;101130.59;10377367;28;20260;-78
2023/12/19 02:05:24;;;;;;;8.77;7.13;;;;;;;6.24;43.28;101051.47;10385683;28;20233;-78
2023/12/19 02:10:27;;;;;;;10.13;8.23;;;;;;;6.82;42.21;101063.63;10373732;28;20250;-78
2023/12/19 02:15:29;;;;;;;9.27;7.23;;;;;;;6.17;43.83;101021.03;10373121;28;20239;-79
2023/12/19 02:20:30;;;;;;;8.83;6.90;;;;;;;6.06;42.81;101157.44;10378516;28;20236;-78
2023/12/19 02:25:32;;;;;;;8.20;7.40;;;;;;;5.48;44.90;100950.34;10369154;28;20240;-78
2023/12/19 02:30:37;;;;;;;9.03;7.53;;;;;;;6.95;42.97;100888.63;10367641;28;20243;-78
2023/12/19 02:35:43;;;;;;;8.33;6.83;;;;;;;6.24;43.13;101047.94;10375111;28;20234;-78
2023/12/19 02:40:45;;;;;;;8.07;6.53;;;;;;;5.96;43.74;101020.97;10375443;28;20251;-79
2023/12/19 02:45:46;;;;;;;9.43;7.07;;;;;;;5.92;44.07;101030.13;10372311;28;20246;-78
2023/12/19 02:50:48;;;;;;;8.23;6.40;;;;;;;6.10;43.88;100985.28;10380337;28;20628;-78
2023/12/19 02:55:50;;;;;;;10.27;7.23;;;;;;;6.99;43.60;100769.44;10374459;28;20613;-78
2023/12/19 03:00:51;;;;;;;7.90;6.83;;;;;;;7.35;43.24;100751.13;10370067;28;20247;-78
2023/12/19 03:05:53;;;;;;;9.10;7.77;;;;;;;5.40;46.02;100942.19;10373336;28;20595;-77
2023/12/19 03:10:56;;;;;;;9.70;7.40;;;;;;;6.44;44.23;100847.72;10370622;28;20236;-78
2023/12/19 03:15:57;;;;;;;10.30;7.90;;;;;;;6.34;44.59;100838.84;10375249;28;20259;-78
2023/12/19 03:20:59;;;;;;;11.13;7.80;;;;;;;6.93;43.14;100897.72;10370918;28;20771;-78
2023/12/19 03:26:02;;;;;;;10.23;7.70;;;;;;;6.32;44.33;100901.13;10335605;28;20246;-78
2023/12/19 03:31:04;;;;;;;11.33;8.27;;;;;;;5.13;45.98;101022.13;10329187;28;20699;-78
2023/12/19 03:36:06;;;;;;;10.27;7.57;;;;;;;6.10;45.68;100738.13;10368964;28;20242;-79
2023/12/19 03:41:07;;;;;;;10.53;8.73;;;;;;;5.81;45.42;100834.44;10337619;28;20241;-77
2023/12/19 03:46:10;;;;;;;9.97;7.97;;;;;;;5.04;46.13;100991.03;10331297;28;20693;-78
2023/12/19 03:51:12;;;;;;;9.57;8.00;;;;;;;3.78;48.53;101020.59;10352215;28;20389;-78
2023/12/19 03:56:14;;;;;;;9.77;7.57;;;;;;;3.51;49.80;100877.81;10354339;28;20231;-76
2023/12/19 04:01:18;;;;;;;10.77;8.67;;;;;;;5.14;47.11;100746.06;10353947;28;20234;-78
2023/12/19 04:06:20;;;;;;;11.67;8.63;;;;;;;5.44;47.15;100659.56;10352708;28;20686;-78
2023/12/19 04:11:21;;;;;;;9.80;8.23;;;;;;;6.57;45.07;100672.00;10365732;28;20243;-77
2023/12/19 04:16:23;;;;;;;11.00;8.70;;;;;;;6.72;43.47;100837.38;10365080;28;20322;-78
2023/12/19 04:21:25;;;;;;;9.93;7.87;;;;;;;5.23;46.12;100832.03;10378234;28;20231;-77
2023/12/19 04:26:27;;;;;;;12.43;9.03;;;;;;;6.40;44.70;100742.63;10354247;28;20232;-78
2023/12/19 04:31:28;;;;;;;10.93;9.70;;;;;;;6.95;44.27;100627.84;10375264;28;20244;-78
2023/12/19 04:36:31;;;;;;;11.07;9.23;;;;;;;6.46;44.55;100717.31;10383347;28;20236;-78
2023/12/19 04:41:34;;;;;;;12.60;9.20;;;;;;;6.43;44.24;100753.00;10376135;28;20580;-78
2023/12/19 04:46:38;;;;;;;9.97;7.63;;;;;;;6.41;44.09;100775.34;10369918;28;20289;-78
2023/12/19 04:51:39;;;;;;;11.27;9.10;;;;;;;5.45;45.25;100799.31;10376994;28;20248;-79
2023/12/19 04:56:42;;;;;;;11.97;8.60;;;;;;;7.30;43.48;100638.88;10377459;28;20242;-78
2023/12/19 05:01:45;;;;;;;12.23;8.30;;;;;;;6.01;45.02;100729.16;10371976;28;20249;-75
2023/12/19 05:06:47;;;;;;;12.03;9.43;;;;;;;6.53;43.84;100747.72;10365490;28;20698;-75
2023/12/19 05:11:49;;;;;;;12.73;8.47;;;;;;;5.48;44.35;100912.34;10368261;28;20239;-75
2023/12/19 05:16:51;;;;;;;10.90;9.73;;;;;;;6.20;43.68;100809.97;10375644;28;20360;-75
2023/12/19 05:21:52;;;;;;;11.70;9.00;;;;;;;6.63;43.23;100777.84;10365120;28;20270;-74
2023/12/19 05:26:59;;;;;;;12.53;9.20;;;;;;;6.40;43.14;100795.78;10364413;28;20638;-74
2023/12/19 05:32:04;;;;;;;11.80;9.30;;;;;;;5.40;44.56;100899.72;10362593;28;20242;-75
2023/12/19 05:37:06;;;;;;;11.17;8.77;;;;;;;6.09;44.71;100666.53;10371431;28;20337;-75
2023/12/19 05:42:08;;;;;;;10.57;8.23;;;;;;;5.02;45.51;100768.28;10372106;28;20286;-74
2023/12/19 05:47:10;;;;;;;11.80;9.00;;;;;;;4.97;45.03;100868.63;10370602;28;20338;-74
2023/12/19 05:52:12;;;;;;;11.40;9.53;;;;;;;5.57;44.51;100757.63;10366781;28;20226;-75
2023/12/19 05:57:13;;;;;;;9.90;8.70;;;;;;;5.48;44.84;100727.34;10374411;28;20226;-75
2023/12/19 06:02:16;;;;;;;12.53;8.53;;;;;;;6.93;42.93;100618.31;10370110;28;20251;-74
2023/12/19 06:07:18;;;;;;;11.33;8.37;;;;;;;5.98;43.87;100702.00;10377003;28;20230;-74
2023/12/19 06:12:19;;;;;;;12.93;8.93;;;;;;;6.63;42.84;100665.28;10367097;28;20313;-75
2023/12/19 06:17:22;;;;;;;12.77;9.13;;;;;;;5.98;43.68;100733.88;10371328;28;20767;-75
2023/12/19 06:22:24;;;;;;;11.87;9.60;;;;;;;7.06;42.60;100632.19;10375684;28;20285;-74
2023/12/19 06:27:27;;;;;;;10.17;7.30;;;;;;;4.65;45.28;100982.50;10370486;28;20247;-74
2023/12/19 06:32:29;;;;;;;12.77;9.97;;;;;;;4.94;44.81;100906.00;10370431;28;20280;-74
2023/12/19 06:37:31;;;;;;;11.73;8.70;;;;;;;5.68;44.24;100791.28;10366905;28;20606;-75
2023/12/19 06:42:33;;;;;;;12.03;9.27;;;;;;;6.06;43.35;100801.34;10369378;28;20623;-74
2023/12/19 06:47:35;;;;;;;13.30;10.07;;;;;;;5.92;43.81;100755.66;10372071;28;20344;-74
2023/12/19 06:52:37;;;;;;;13.80;9.63;;;;;;;6.22;42.15;100941.75;10375893;28;20633;-74
2023/12/19 06:57:39;;;;;;;12.40;9.80;;;;;;;6.34;42.55;100822.91;10382143;28;20317;-74
2023/12/19 07:02:41;;;;;;;17.47;9.60;;;;;;;7.98;41.04;100710.69;10362214;28;20241;-75
2023/12/19 07:07:44;;;;;;;12.97;10.57;;;;;;;8.13;40.15;100752.91;10364381;28;20320;-74
2023/12/19 07:12:45;;;;;;;13.13;9.90;;;;;;;8.87;38.60;100882.00;10361240;28;20415;-75
2023/12/19 07:17:47;;;;;;;12.97;10.40;;;;;;;8.34;39.40;100894.06;10360037;28;20234;-74
2023/12/19 07:22:49;;;;;;;13.33;9.60;;;;;;;6.03;42.54;100933.63;10360293;28;20234;-74
2023/12/19 07:27:51;;;;;;;12.63;10.50;;;;;;;7.60;40.52;100847.47;10356112;28;20257;-74
2023/12/19 07:32:53;;;;;;;11.47;9.03;;;;;;;6.77;41.50;100863.63;10362087;28;20247;-75
2023/12/19 07:37:54;;;;;;;13.17;10.63;;;;;;;6.24;42.50;100862.75;10356209;28;20589;-74
2023/12/19 07:42:57;;;;;;;11.43;9.97;;;;;;;6.74;42.26;100725.53;10351052;28;20248;-75
2023/12/19 07:47:59;;;;;;;11.73;9.57;;;;;;;5.50;43.69;100823.66;10321753;28;20733;-74
2023/12/19 07:53:01;;;;;;;11.93;10.00;;;;;;;5.90;43.12;100824.03;10324647;28;20235;-75
2023/12/19 07:58:03;;;;;;;13.53;9.53;;;;;;;7.04;41.41;100801.81;10315556;28;20290;-75
2023/12/19 08:03:05;;;;;;;13.00;9.93;;;;;;;5.36;42.67;101038.09;10328717;28;20288;-75
2023/12/19 08:08:07;;;;;;;14.33;9.77;;;;;;;6.91;41.69;100803.88;10372973;28;20243;-75
2023/12/19 08:13:09;;;;;;;11.53;9.87;;;;;;;5.42;42.75;101032.28;10309257;28;20227;-74
2023/12/19 08:18:10;;;;;;;12.93;9.87;;;;;;;5.07;43.87;100935.91;10295779;28;20238;-75
2023/12/19 08:23:12;;;;;;;12.40;9.50;;;;;;;6.75;42.26;100721.88;10299030;28;20407;-74
2023/12/19 08:28:14;;;;;;;16.93;10.93;;;;;;;5.65;42.65;100986.22;10287997;28;20257;-75
2023/12/19 08:33:16;;;;;;;13.10;10.20;;;;;;;5.65;43.98;100804.78;10269505;28;20235;-75
2023/12/19 08:38:18;;;;;;;12.23;10.10;;;;;;;4.74;45.02;100878.38;10288163;28;20632;-75
2023/12/19 08:43:20;;;;;;;11.53;10.33;;;;;;;6.11;42.75;100875.38;10287161;28;20267;-75
2023/12/19 08:48:22;;;;;;;11.07;9.37;;;;;;;6.48;41.85;100904.16;10289628;28;20240;-75
2023/12/19 08:53:23;;;;;;;12.63;9.07;;;;;;;5.60;44.17;100830.88;10286120;28;20264;-75
2023/12/19 08:58:25;;;;;;;12.20;9.13;;;;;;;5.80;43.71;100861.13;10269526;28;20306;-74
2023/12/19 09:03:27;;;;;;;13.07;8.83;;;;;;;6.65;42.79;100775.06;10265506;28;20235;-75
2023/12/19 09:08:29;;;;;;;12.23;9.20;;;;;;;7.19;42.91;100677.16;10287922;28;20291;-75
2023/12/19 09:13:31;;;;;;;12.33;9.50;;;;;;;6.13;43.38;100766.28;10302726;28;20243;-74
2023/12/19 09:18:32;;;;;;;10.07;8.90;;;;;;;6.64;42.97;100728.16;10329054;28;20236;-75
2023/12/19 09:23:34;;;;;;;10.77;7.77;;;;;;;5.50;44.39;100831.63;10328285;28;20236;-74
2023/12/19 09:28:38;;;;;;;8.67;7.10;;;;;;;5.02;44.88;100855.84;10300146;28;20240;-75
2023/12/19 09:33:40;;;;;;;9.37;7.53;;;;;;;7.60;42.27;100634.34;10326353;28;20293;-75
2023/12/19 09:38:43;;;;;;;8.90;7.97;;;;;;;5.63;44.53;100793.47;10329246;28;20710;-75
2023/12/19 09:43:47;;;;;;;8.17;6.63;;;;;;;6.32;44.31;100725.66;10323400;28;20228;-75
2023/12/19 09:48:49;;;;;;;8.53;7.07;;;;;;;5.93;44.17;100835.22;10324854;28;20244;-75
2023/12/19 09:53:54;;;;;;;7.73;6.47;;;;;;;6.71;43.38;100712.50;10321536;28;20228;-75
2023/12/19 09:59:00;;;;;;;6.07;5.47;;;;;;;6.60;43.68;100779.94;10327253;28;20236;-75
2023/12/19 10:04:02;;;;;;;6.73;5.63;;;;;;;6.89;43.09;100788.03;10305077;28;20299;-74
2023/12/19 10:09:04;;;;;;;7.53;5.97;;;;;;;7.82;42.70;100647.31;10319058;28;20849;-75
2023/12/19 10:14:11;;;;;;;7.10;5.40;;;;;;;6.90;43.55;100757.81;10329063;28;20235;-75
2023/12/19 10:19:13;;;;;;;5.67;4.93;;;;;;;7.13;44.30;100625.31;10310337;28;20256;-75
2023/12/19 10:24:25;;;;;;;6.33;5.43;;;;;;;6.68;44.37;100675.50;10323702;28;20618;-75
2023/12/19 10:29:28;;;;;;;7.20;5.70;;;;;;;7.71;43.55;100647.47;10319292;28;20254;-74
2023/12/19 10:34:30;;;;;;;6.40;5.23;;;;;;;5.98;45.65;100704.66;10307724;28;20256;-75
2023/12/19 10:39:33;;;;;;;5.00;4.50;;;;;;;5.32;46.41;100756.97;10324141;28;20251;-75
2023/12/19 10:44:38;;;;;;;4.77;4.37;;;;;;;6.75;45.36;100615.47;10328776;28;20236;-75
2023/12/19 10:49:42;;;;;;;5.03;4.53;;;;;;;6.11;45.98;100739.84;10318319;28;20243;-75
2023/12/19 10:54:45;;;;;;;4.70;4.20;;;;;;;8.34;43.87;100566.03;10324201;28;20267;-75
2023/12/19 10:59:49;;;;;;;4.97;4.33;;;;;;;8.14;44.33;100597.28;10322474;28;20719;-75
2023/12/19 11:06:17;;;;;;;5.50;4.90;;;;;;;6.09;48.21;100597.44;10404074;27;20738;-75
2023/12/19 11:11:35;;;;;;;4.70;4.30;;;;;;;6.49;47.40;100546.84;10365643;28;20685;-75
2023/12/19 11:17:08;;;;;;;5.30;4.80;;;;;;;7.10;46.68;100574.19;10337159;28;20248;-75
2023/12/19 11:22:22;;;;;;;5.20;4.60;;;;;;;7.14;46.35;100501.88;10350036;28;20233;-76
2023/12/19 11:27:34;;;;;;;5.17;4.57;;;;;;;7.43;46.12;100526.75;10348901;28;20660;-75
2023/12/19 11:32:38;;;;;;;4.80;4.37;;;;;;;5.82;47.57;100625.44;10327556;28;20618;-75
2023/12/19 11:37:44;;;;;;;7.20;5.13;;;;;;;7.13;47.29;100497.53;10351350;27;20260;-75
2023/12/19 11:42:47;;;;;;;5.30;4.77;;;;;;;7.33;45.74;100598.66;10340829;28;20318;-75
2023/12/19 11:47:48;;;;;;;5.20;4.67;;;;;;;8.10;45.48;100426.16;10336917;28;20238;-75
2023/12/19 11:52:51;;;;;;;5.00;4.50;;;;;;;8.28;44.85;100426.94;10342073;28;20743;-76
2023/12/19 11:57:53;;;;;;;5.73;5.13;;;;;;;6.45;46.83;100590.66;10340723;28;20237;-75
2023/12/19 12:03:10;;;;;;;7.20;5.10;;;;;;;7.18;45.66;100592.94;10334725;28;20229;-75
2023/12/19 12:08:12;;;;;;;4.87;4.33;;;;;;;6.99;46.39;100546.75;10339528;28;20263;-74
2023/12/19 12:13:15;;;;;;;4.90;4.40;;;;;;;7.15;46.08;100508.03;10332699;28;20230;-75
2023/12/19 12:18:18;;;;;;;5.60;5.00;;;;;;;7.28;45.61;100571.63;10306192;28;20250;-75
2023/12/19 12:23:20;;;;;;;4.40;4.00;;;;;;;7.93;45.01;100478.41;10312396;28;20241;-75
2023/12/19 12:28:26;;;;;;;5.00;4.50;;;;;;;7.18;46.05;100513.91;10305237;28;20656;-75
2023/12/19 12:33:28;;;;;;;5.60;5.00;;;;;;;7.41;45.45;100542.88;10320244;28;20321;-75
2023/12/19 12:38:30;;;;;;;5.63;4.97;;;;;;;9.00;43.75;100389.44;10302695;28;20249;-75
2023/12/19 12:43:33;;;;;;;4.30;3.90;;;;;;;7.83;45.35;100497.13;10313735;28;20321;-75
2023/12/19 12:48:41;;;;;;;5.47;4.40;;;;;;;7.07;46.56;100446.72;10311130;28;20230;-75
2023/12/19 12:53:43;;;;;;;5.77;4.67;;;;;;;8.43;44.99;100359.72;10309863;28;20297;-75
2023/12/19 12:58:46;;;;;;;5.50;5.00;;;;;;;9.32;44.25;100337.19;10310562;28;20238;-74
2023/12/19 13:03:50;;;;;;;6.10;5.50;;;;;;;8.56;44.67;100416.19;10304166;28;20299;-75
2023/12/19 13:08:51;;;;;;;5.17;4.67;;;;;;;8.10;45.24;100485.63;10304152;28;20707;-74
2023/12/19 13:13:53;;;;;;;4.67;4.27;;;;;;;6.86;47.22;100492.16;10305190;28;20255;-75
2023/12/19 13:18:55;;;;;;;5.33;4.83;;;;;;;9.04;43.86;100483.41;10302071;28;20265;-75
2023/12/19 13:23:56;;;;;;;4.90;4.47;;;;;;;9.00;44.51;100373.44;10302715;28;20245;-75
2023/12/19 13:28:59;;;;;;;5.77;4.47;;;;;;;7.86;46.90;100309.47;10323464;28;20606;-75
2023/12/19 13:34:01;;;;;;;3.70;3.40;;;;;;;6.92;48.24;100411.75;10299889;28;20254;-75
2023/12/19 13:39:03;;;;;;;5.23;4.73;;;;;;;7.26;46.25;100539.81;10304178;28;20731;-74
2023/12/19 13:44:04;;;;;;;5.07;4.57;;;;;;;8.01;46.06;100432.38;10297675;28;20716;-75
2023/12/19 13:49:08;;;;;;;6.27;4.90;;;;;;;9.68;43.34;100339.59;10304710;28;20547;-75
2023/12/19 13:54:10;;;;;;;4.37;3.97;;;;;;;7.55;46.89;100400.41;10303161;28;20284;-75
2023/12/19 13:59:11;;;;;;;4.37;3.97;;;;;;;8.71;45.61;100282.19;10316834;28;20234;-75
2023/12/19 14:04:13;;;;;;;4.63;3.90;;;;;;;7.76;46.38;100433.91;10317962;28;20332;-75
2023/12/19 14:09:19;;;;;;;4.70;4.30;;;;;;;6.95;47.42;100454.88;10310311;28;20590;-75
2023/12/19 14:14:21;;;;;;;4.97;4.47;;;;;;;7.34;47.42;100350.06;10310689;28;20781;-74
2023/12/19 14:19:22;;;;;;;5.10;4.10;;;;;;;7.01;46.94;100512.00;10306414;28;20496;-75
2023/12/19 14:24:24;;;;;;;5.73;5.13;;;;;;;9.07;44.21;100383.50;10315907;28;20256;-75
2023/12/19 14:29:26;;;;;;;6.03;5.43;;;;;;;9.27;44.17;100309.31;10303861;28;20620;-75
2023/12/19 14:34:30;;;;;;;5.80;5.20;;;;;;;8.59;45.18;100402.53;10308173;28;20289;-74
2023/12/19 14:39:32;;;;;;;5.70;5.10;;;;;;;7.53;46.48;100447.66;10310382;28;20246;-75
2023/12/19 14:44:37;;;;;;;6.20;5.53;;;;;;;7.34;46.34;100484.03;10312852;28;20679;-75
2023/12/19 14:49:40;;;;;;;8.10;5.80;;;;;;;8.05;45.64;100377.75;10311042;28;20329;-75
2023/12/19 14:54:42;;;;;;;5.30;4.80;;;;;;;8.98;43.95;100345.25;10309284;28;20780;-75
2023/12/19 14:59:44;;;;;;;6.27;5.30;;;;;;;8.86;43.91;100315.31;10304180;28;20242;-75
2023/12/19 15:04:45;;;;;;;5.73;5.13;;;;;;;7.84;44.48;100439.34;10309604;28;20241;-75
2023/12/19 15:09:47;;;;;;;6.30;5.57;;;;;;;9.22;42.72;100294.59;10310045;28;20244;-74
2023/12/19 15:14:49;;;;;;;7.70;6.37;;;;;;;10.37;41.10;100307.19;10309139;28;20245;-75
2023/12/19 15:19:50;;;;;;;7.20;6.37;;;;;;;9.64;42.16;100300.00;10309314;28;20234;-75
2023/12/19 15:24:52;;;;;;;7.93;6.33;;;;;;;8.87;42.48;100418.41;10318874;28;20234;-75
2023/12/19 15:29:54;;;;;;;8.93;6.47;;;;;;;9.72;41.35;100319.56;10309210;28;20238;-75
2023/12/19 15:34:56;;;;;;;8.60;7.30;;;;;;;8.62;41.83;100511.63;10306881;28;20320;-75
2023/12/19 15:39:58;;;;;;;7.63;6.53;;;;;;;8.78;42.45;100385.47;10307321;28;20303;-75
2023/12/19 15:44:59;;;;;;;8.73;7.60;;;;;;;8.74;42.10;100410.81;10307904;28;20265;-76
2023/12/19 15:50:03;;;;;;;9.13;7.33;;;;;;;10.88;39.36;100305.06;10309760;28;20246;-76
2023/12/19 15:55:07;;;;;;;8.43;6.50;;;;;;;8.18;42.90;100385.38;10311508;28;20746;-76
2023/12/19 16:00:09;;;;;;;9.43;7.10;;;;;;;9.30;41.91;100299.13;10313743;28;20230;-76
2023/12/19 16:05:11;;;;;;;11.40;7.70;;;;;;;10.51;39.54;100335.06;10312189;28;20252;-76
2023/12/19 16:10:13;;;;;;;18.60;11.63;;;;;;;9.41;40.94;100415.50;10312341;28;20627;-76
2023/12/19 16:15:17;;;;;;;11.27;8.33;;;;;;;8.05;42.81;100460.38;10314500;28;20237;-74
2023/12/19 16:20:20;;;;;;;9.90;8.07;;;;;;;9.00;42.28;100273.84;10318929;28;20300;-76
2023/12/19 16:25:21;;;;;;;9.00;7.30;;;;;;;8.95;42.53;100249.47;10319906;28;20736;-76
2023/12/19 16:30:23;;;;;;;11.20;7.50;;;;;;;9.46;42.59;100196.78;10316616;28;20312;-76
2023/12/19 16:35:25;;;;;;;11.60;8.73;;;;;;;10.05;40.93;100295.50;10315467;28;20234;-76
2023/12/19 16:40:26;;;;;;;13.43;8.20;;;;;;;9.64;41.34;100321.41;10319688;28;20240;-75
2023/12/19 16:45:29;;;;;;;12.77;8.80;;;;;;;9.89;40.65;100371.22;10312504;28;20242;-75
2023/12/19 16:50:31;;;;;;;10.50;8.83;;;;;;;9.14;41.43;100371.16;10315537;28;20242;-76
2023/12/19 16:55:33;;;;;;;11.57;8.90;;;;;;;8.14;43.66;100296.03;10312340;28;20269;-76
2023/12/19 17:00:35;;;;;;;8.57;7.67;;;;;;;8.16;44.08;100227.41;10314577;28;20238;-75
2023/12/19 17:05:37;;;;;;;8.47;7.57;;;;;;;9.85;41.82;100121.28;10312153;28;20623;-77
2023/12/19 17:10:39;;;;;;;9.30;8.23;;;;;;;9.56;41.08;100282.13;10313670;28;20240;-76
2023/12/19 17:15:43;;;;;;;9.53;7.63;;;;;;;9.68;41.26;100187.25;10320054;28;20234;-77
2023/12/19 17:20:45;;;;;;;10.10;7.80;;;;;;;9.85;40.71;100249.59;10322795;28;20230;-76
2023/12/19 17:25:46;;;;;;;12.07;9.97;;;;;;;8.67;42.15;100325.22;10313761;28;20363;-76
2023/12/19 17:30:48;;;;;;;13.93;11.00;;;;;;;8.88;41.73;100321.34;10315039;28;20275;-75
2023/12/19 17:35:50;;;;;;;11.27;8.83;;;;;;;9.52;41.63;100182.78;10315852;28;20732;-76
2023/12/19 17:40:51;;;;;;;9.53;8.13;;;;;;;10.05;40.96;100097.66;10314597;28;20338;-75
2023/12/19 17:45:53;;;;;;;7.57;6.20;;;;;;;7.37;45.28;100038.25;10315051;28;20773;-76
2023/12/19 17:50:55;;;;;;;8.20;7.00;;;;;;;8.61;42.84;100170.28;10310127;28;20230;-76
2023/12/19 17:55:56;;;;;;;12.77;8.80;;;;;;;9.65;42.14;100055.84;10312645;28;20238;-75
2023/12/19 18:00:59;;;;;;;9.47;7.10;;;;;;;9.21;42.03;100161.22;10317795;28;20618;-76
2023/12/19 18:06:02;;;;;;;8.87;7.60;;;;;;;8.53;43.10;100156.91;10356980;28;20245;-76
2023/12/19 18:11:05;;;;;;;8.57;6.93;;;;;;;9.08;42.77;100111.00;10326884;28;20259;-75
2023/12/19 18:16:06;;;;;;;8.43;6.43;;;;;;;9.16;42.18;100183.13;10311052;28;20250;-76
2023/12/19 18:21:09;;;;;;;7.67;6.40;;;;;;;8.97;42.47;100144.19;10316112;28;20233;-76
2023/12/19 18:26:11;;;;;;;9.00;8.10;;;;;;;8.89;43.16;100154.03;10311409;28;20239;-75
2023/12/19 18:31:13;;;;;;;8.00;7.17;;;;;;;8.74;43.02;100229.34;10319763;28;20245;-73
2023/12/19 18:36:22;;;;;;;9.83;7.30;;;;;;;9.02;42.87;100154.38;10313366;28;20287;-74
2023/12/19 18:41:24;;;;;;;10.17;8.57;;;;;;;10.65;41.46;100033.81;10320409;28;20284;-75
2023/12/19 18:46:26;;;;;;;10.67;8.50;;;;;;;10.65;40.93;100112.25;10311691;28;20241;-75
2023/12/19 18:51:27;;;;;;;8.40;7.47;;;;;;;10.07;41.92;100130.44;10313432;28;20332;-74
2023/12/19 18:56:29;;;;;;;8.60;7.57;;;;;;;9.98;41.65;100234.88;10311639;28;20230;-75
2023/12/19 19:01:31;;;;;;;9.20;7.07;;;;;;;8.50;43.59;100250.59;10330958;28;20324;-75
2023/12/19 19:06:35;;;;;;;10.03;7.83;;;;;;;9.72;42.07;100112.94;10325122;28;20256;-74
2023/12/19 19:11:38;;;;;;;9.90;7.13;;;;;;;8.03;45.21;100076.75;10350050;28;20556;-75
2023/12/19 19:16:39;;;;;;;10.30;8.57;;;;;;;8.34;44.25;100158.84;10354517;28;20233;-74
2023/12/19 19:21:42;;;;;;;9.23;7.93;;;;;;;8.92;43.72;100106.47;10353758;28;20233;-74
2023/12/19 19:26:44;;;;;;;7.70;6.90;;;;;;;7.82;46.78;99951.06;10376221;28;20233;-74
2023/12/19 19:31:47;;;;;;;10.60;8.50;;;;;;;8.19;45.64;100020.00;10362264;28;20699;-74
2023/12/19 19:36:51;;;;;;;9.93;7.80;;;;;;;8.56;44.72;100080.06;10354406;28;20244;-74
2023/12/19 19:41:53;;;;;;;9.97;8.10;;;;;;;9.13;44.21;100015.22;10383435;28;20315;-74
2023/12/19 19:46:54;;;;;;;9.23;7.17;;;;;;;7.96;45.43;100166.31;10362812;28;20279;-75
2023/12/19 19:51:56;;;;;;;9.30;7.93;;;;;;;8.95;44.85;100070.63;10359877;27;20237;-75
2023/12/19 19:56:58;;;;;;;9.43;7.73;;;;;;;9.12;45.38;100032.25;10358921;28;20232;-75
2023/12/19 20:01:59;;;;;;;9.50;7.83;;;;;;;7.35;47.51;100186.66;10358162;28;20237;-75
2023/12/19 20:07:01;;;;;;;8.00;6.97;;;;;;;8.87;46.37;99966.56;10360356;28;20666;-74
2023/12/19 20:12:03;;;;;;;9.27;8.27;;;;;;;9.07;44.80;100101.31;10349806;28;20244;-75
2023/12/19 20:17:06;;;;;;;7.67;6.43;;;;;;;6.57;48.56;100009.84;10368801;28;20261;-75
2023/12/19 20:22:07;;;;;;;9.63;7.13;;;;;;;8.17;46.32;99951.81;10352379;28;20571;-80
2023/12/19 20:27:09;;;;;;;9.03;6.80;;;;;;;8.62;44.68;100007.41;10387098;28;20277;-76
2023/12/19 20:32:11;;;;;;;7.93;6.33;;;;;;;9.17;43.84;99928.44;10350107;28;20248;-72
2023/12/19 20:37:12;;;;;;;8.57;6.53;;;;;;;9.50;43.04;99954.19;10369607;28;20221;-73
2023/12/19 20:42:15;;;;;;;7.37;6.27;;;;;;;9.46;43.38;99961.72;10355695;28;20233;-75
2023/12/19 20:47:16;;;;;;;7.70;6.13;;;;;;;8.40;44.51;100024.84;10367053;28;20226;-74
2023/12/19 20:52:18;;;;;;;8.13;6.50;;;;;;;10.56;41.93;99911.78;10365597;28;20256;-75
2023/12/19 20:57:21;;;;;;;6.97;5.70;;;;;;;9.62;43.05;99965.34;10353598;28;20629;-74
2023/12/19 21:02:22;;;;;;;8.13;5.87;;;;;;;9.66;43.04;99945.28;10366450;28;20301;-74
2023/12/19 21:07:24;;;;;;;6.23;5.63;;;;;;;9.70;42.45;100048.13;10381925;28;20240;-73
2023/12/19 21:12:26;;;;;;;6.77;5.77;;;;;;;8.87;43.75;100036.75;10360814;28;20226;-79
2023/12/19 21:17:28;;;;;;;7.40;5.60;;;;;;;9.92;42.42;100031.41;10384045;28;20219;-80
2023/12/19 21:22:29;;;;;;;7.73;6.40;;;;;;;9.32;42.90;100096.81;10370170;28;20534;-75
2023/12/19 21:27:31;;;;;;;8.53;6.47;;;;;;;8.75;44.88;99971.38;10359217;28;20244;-75
2023/12/19 21:32:33;;;;;;;9.07;6.80;;;;;;;9.72;42.63;100080.84;10359874;28;20774;-75
2023/12/19 21:37:34;;;;;;;7.67;6.00;;;;;;;9.37;44.39;99904.84;10352026;28;20243;-75
2023/12/19 21:42:36;;;;;;;9.13;6.10;;;;;;;9.73;43.96;99872.25;10360444;28;20240;-74
2023/12/19 21:47:38;;;;;;;9.10;6.50;;;;;;;8.39;45.35;99987.72;10362140;28;20241;-74
2023/12/19 21:52:40;;;;;;;7.30;6.50;;;;;;;9.71;43.51;99925.03;10367958;28;20236;-74
2023/12/19 21:57:44;;;;;;;7.73;6.50;;;;;;;9.69;43.76;99924.38;10353719;28;20315;-74
2023/12/19 22:02:46;;;;;;;6.13;5.53;;;;;;;8.82;45.69;99850.44;10367572;28;20256;-74
2023/12/19 22:07:47;;;;;;;7.40;6.20;;;;;;;9.19;44.45;99944.28;10347219;28;20244;-74
2023/12/19 22:12:50;;;;;;;7.23;6.03;;;;;;;9.36;43.70;100031.34;10362592;28;20243;-74
2023/12/19 22:17:51;;;;;;;7.73;6.47;;;;;;;9.98;44.06;99850.75;10349027;28;20244;-75
2023/12/19 22:22:53;;;;;;;7.03;6.20;;;;;;;9.54;45.79;99788.06;10365531;28;20799;-74
2023/12/19 22:27:54;;;;;;;8.43;6.90;;;;;;;8.85;45.76;99935.50;10351043;28;20241;-74
2023/12/19 22:32:56;;;;;;;7.77;6.97;;;;;;;9.90;44.88;99845.44;10352300;28;20304;-74
2023/12/19 22:38:01;;;;;;;8.70;7.20;;;;;;;10.95;43.22;99846.50;10375700;28;20245;-74
2023/12/19 22:43:03;;;;;;;8.93;6.50;;;;;;;9.99;45.50;99815.00;10365392;28;20368;-74
2023/12/19 22:48:07;;;;;;;8.77;7.20;;;;;;;10.51;44.42;99814.16;10343373;28;20241;-73
2023/12/19 22:53:09;;;;;;;9.73;6.80;;;;;;;10.11;45.27;99858.16;10348375;28;20316;-74
2023/12/19 22:58:11;;;;;;;7.50;6.67;;;;;;;11.26;43.14;99830.22;10356703;28;20282;-74
2023/12/19 23:03:16;;;;;;;8.53;7.43;;;;;;;11.41;43.65;99785.47;10347542;28;20316;-74
2023/12/19 23:08:18;;;;;;;8.27;6.73;;;;;;;10.26;45.19;99848.34;10341525;28;20255;-73
2023/12/19 23:13:20;;;;;;;7.47;6.20;;;;;;;11.19;42.95;99872.16;10347057;28;20240;-76
2023/12/19 23:18:22;;;;;;;7.70;6.90;;;;;;;9.56;45.56;99948.16;10347453;28;20238;-73
2023/12/19 23:23:24;;;;;;;10.00;7.20;;;;;;;10.80;44.08;99867.91;10352702;28;20229;-73